sensor_id;sensor_type;location;lat;lon;timestamp;pressure;altitude;pressure_sealevel;temperature;humidity
82379;BME280;72008;48.140;11.614;2024-02-21T00:00:17;96448.53;;;7.11;79.04
82379;BME280;72008;48.140;11.614;2024-02-21T00:01:18;96444.50;;;7.08;73.29
82379;BME280;72008;48.140;11.614;2024-02-21T00:02:38;96447.63;;;7.15;72.83
82379;BME280;72008;48.140;11.614;2024-02-21T00:03:38;96453.19;;;7.10;75.70
82379;BME280;72008;48.140;11.614;2024-02-21T00:04:39;96450.69;;;6.95;72.82
82379;BME280;72008;48.140;11.614;2024-02-21T00:05:39;96456.72;;;6.92;74.17
82379;BME280;72008;48.140;11.614;2024-02-21T00:06:39;96447.75;;;7.10;79.33
82379;BME280;72008;48.140;11.614;2024-02-21T00:07:40;96448.16;;;7.17;75.43
82379;BME280;72008;48.140;11.614;2024-02-21T00:08:40;96441.00;;;7.21;78.39
82379;BME280;72008;48.140;11.614;2024-02-21T00:09:41;96446.03;;;7.14;71.68
82379;BME280;72008;48.140;11.614;2024-02-21T00:10:42;96443.31;;;7.14;76.79
82379;BME280;72008;48.140;11.614;2024-02-21T00:11:43;96446.97;;;7.23;77.01
82379;BME280;72008;48.140;11.614;2024-02-21T00:12:43;96450.59;;;7.19;73.83
82379;BME280;72008;48.140;11.614;2024-02-21T00:13:43;96446.78;;;7.01;73.55
82379;BME280;72008;48.140;11.614;2024-02-21T00:14:44;96444.06;;;7.01;75.08
82379;BME280;72008;48.140;11.614;2024-02-21T00:15:44;96442.78;;;7.12;75.33
82379;BME280;72008;48.140;11.614;2024-02-21T00:16:45;96445.72;;;7.16;76.06
82379;BME280;72008;48.140;11.614;2024-02-21T00:17:45;96449.47;;;7.20;74.66
82379;BME280;72008;48.140;11.614;2024-02-21T00:18:45;96443.84;;;6.97;74.25
82379;BME280;72008;48.140;11.614;2024-02-21T00:19:46;96432.81;;;7.07;77.81
82379;BME280;72008;48.140;11.614;2024-02-21T00:20:46;96435.41;;;7.13;80.11
82379;BME280;72008;48.140;11.614;2024-02-21T00:21:47;96442.84;;;7.26;78.67
82379;BME280;72008;48.140;11.614;2024-02-21T00:22:47;96435.47;;;7.26;73.13
82379;BME280;72008;48.140;11.614;2024-02-21T00:23:47;96435.81;;;7.39;80.52
82379;BME280;72008;48.140;11.614;2024-02-21T00:24:48;96439.72;;;7.33;78.90
82379;BME280;72008;48.140;11.614;2024-02-21T00:25:48;96428.63;;;7.29;75.07
82379;BME280;72008;48.140;11.614;2024-02-21T00:26:49;96438.53;;;7.39;79.60
82379;BME280;72008;48.140;11.614;2024-02-21T00:27:49;96440.75;;;7.37;76.21
82379;BME280;72008;48.140;11.614;2024-02-21T00:28:55;96429.03;;;7.36;74.87
82379;BME280;72008;48.140;11.614;2024-02-21T00:29:55;96432.06;;;7.35;74.94
82379;BME280;72008;48.140;11.614;2024-02-21T00:30:55;96431.44;;;7.24;78.46
82379;BME280;72008;48.140;11.614;2024-02-21T00:31:56;96425.50;;;7.03;78.17
82379;BME280;72008;48.140;11.614;2024-02-21T00:32:56;96431.16;;;7.06;75.43
82379;BME280;72008;48.140;11.614;2024-02-21T00:34:21;96428.38;;;7.12;74.16
82379;BME280;72008;48.140;11.614;2024-02-21T00:36:42;96425.84;;;7.15;76.09
82379;BME280;72008;48.140;11.614;2024-02-21T00:37:43;96417.47;;;7.12;76.11
82379;BME280;72008;48.140;11.614;2024-02-21T00:38:43;96425.00;;;7.01;77.04
82379;BME280;72008;48.140;11.614;2024-02-21T00:39:44;96423.53;;;7.09;77.29
82379;BME280;72008;48.140;11.614;2024-02-21T00:40:44;96421.13;;;7.07;78.44
82379;BME280;72008;48.140;11.614;2024-02-21T00:41:44;96417.88;;;7.05;76.55
82379;BME280;72008;48.140;11.614;2024-02-21T00:42:45;96414.03;;;7.06;76.51
82379;BME280;72008;48.140;11.614;2024-02-21T00:43:46;96417.28;;;7.08;76.27
82379;BME280;72008;48.140;11.614;2024-02-21T00:44:47;96418.47;;;7.02;76.33
82379;BME280;72008;48.140;11.614;2024-02-21T00:45:47;96411.63;;;7.04;76.03
82379;BME280;72008;48.140;11.614;2024-02-21T00:48:27;96403.31;;;6.96;73.96
82379;BME280;72008;48.140;11.614;2024-02-21T00:49:27;96399.28;;;6.93;74.59
82379;BME280;72008;48.140;11.614;2024-02-21T00:50:28;96406.13;;;6.91;74.69
82379;BME280;72008;48.140;11.614;2024-02-21T00:51:28;96409.97;;;6.90;76.32
82379;BME280;72008;48.140;11.614;2024-02-21T00:52:28;96405.91;;;6.87;73.70
82379;BME280;72008;48.140;11.614;2024-02-21T00:53:36;96407.44;;;6.74;73.50
82379;BME280;72008;48.140;11.614;2024-02-21T00:54:36;96407.31;;;6.84;73.80
82379;BME280;72008;48.140;11.614;2024-02-21T00:55:37;96406.19;;;6.86;74.45
82379;BME280;72008;48.140;11.614;2024-02-21T00:56:37;96410.91;;;6.80;77.38
82379;BME280;72008;48.140;11.614;2024-02-21T00:58:05;96407.94;;;6.63;79.49
82379;BME280;72008;48.140;11.614;2024-02-21T00:59:06;96422.09;;;6.78;77.54
82379;BME280;72008;48.140;11.614;2024-02-21T01:00:26;96416.22;;;6.52;74.51
82379;BME280;72008;48.140;11.614;2024-02-21T01:01:27;96411.88;;;6.70;79.34
82379;BME280;72008;48.140;11.614;2024-02-21T01:02:27;96417.56;;;6.55;73.00
82379;BME280;72008;48.140;11.614;2024-02-21T01:03:40;96410.16;;;6.74;78.87
82379;BME280;72008;48.140;11.614;2024-02-21T01:04:40;96406.75;;;6.69;77.67
82379;BME280;72008;48.140;11.614;2024-02-21T01:05:41;96413.63;;;6.80;80.12
82379;BME280;72008;48.140;11.614;2024-02-21T01:06:41;96408.28;;;6.75;73.71
82379;BME280;72008;48.140;11.614;2024-02-21T01:07:42;96411.94;;;6.65;74.85
82379;BME280;72008;48.140;11.614;2024-02-21T01:08:42;96396.16;;;6.67;74.52
82379;BME280;72008;48.140;11.614;2024-02-21T01:09:42;96414.16;;;6.82;79.41
82379;BME280;72008;48.140;11.614;2024-02-21T01:10:43;96405.38;;;6.85;78.64
82379;BME280;72008;48.140;11.614;2024-02-21T01:11:43;96401.06;;;6.84;78.33
82379;BME280;72008;48.140;11.614;2024-02-21T01:12:44;96407.72;;;6.92;76.48
82379;BME280;72008;48.140;11.614;2024-02-21T01:13:53;96401.69;;;6.95;80.33
82379;BME280;72008;48.140;11.614;2024-02-21T01:14:53;96393.25;;;6.96;76.26
82379;BME280;72008;48.140;11.614;2024-02-21T01:15:54;96399.56;;;6.92;77.35
82379;BME280;72008;48.140;11.614;2024-02-21T01:16:54;96394.34;;;6.95;78.57
82379;BME280;72008;48.140;11.614;2024-02-21T01:17:54;96403.22;;;7.01;79.10
82379;BME280;72008;48.140;11.614;2024-02-21T01:18:55;96398.50;;;7.06;79.45
82379;BME280;72008;48.140;11.614;2024-02-21T01:20:17;96401.22;;;7.06;76.37
82379;BME280;72008;48.140;11.614;2024-02-21T01:21:17;96400.34;;;7.11;79.55
82379;BME280;72008;48.140;11.614;2024-02-21T01:22:18;96394.00;;;7.16;76.85
82379;BME280;72008;48.140;11.614;2024-02-21T01:23:18;96395.81;;;6.88;73.23
82379;BME280;72008;48.140;11.614;2024-02-21T01:24:19;96390.81;;;6.95;76.23
82379;BME280;72008;48.140;11.614;2024-02-21T01:25:19;96390.06;;;7.08;77.95
82379;BME280;72008;48.140;11.614;2024-02-21T01:26:19;96397.03;;;7.14;80.71
82379;BME280;72008;48.140;11.614;2024-02-21T01:27:44;96378.84;;;7.10;75.66
82379;BME280;72008;48.140;11.614;2024-02-21T01:28:44;96377.31;;;7.03;75.05
82379;BME280;72008;48.140;11.614;2024-02-21T01:29:59;96382.91;;;7.12;79.38
82379;BME280;72008;48.140;11.614;2024-02-21T01:31:01;96377.44;;;7.12;78.87
82379;BME280;72008;48.140;11.614;2024-02-21T01:32:02;96383.41;;;7.14;81.15
82379;BME280;72008;48.140;11.614;2024-02-21T01:33:02;96375.25;;;7.14;75.08
82379;BME280;72008;48.140;11.614;2024-02-21T01:34:03;96379.56;;;7.15;78.72
82379;BME280;72008;48.140;11.614;2024-02-21T01:35:04;96379.56;;;7.15;80.25
82379;BME280;72008;48.140;11.614;2024-02-21T01:36:05;96384.41;;;7.18;79.93
82379;BME280;72008;48.140;11.614;2024-02-21T01:37:06;96373.53;;;7.18;77.21
82379;BME280;72008;48.140;11.614;2024-02-21T01:38:06;96375.25;;;7.14;76.98
82379;BME280;72008;48.140;11.614;2024-02-21T01:39:06;96381.69;;;7.04;75.45
82379;BME280;72008;48.140;11.614;2024-02-21T01:40:07;96377.84;;;7.05;78.63
82379;BME280;72008;48.140;11.614;2024-02-21T01:41:39;96383.09;;;7.02;75.85
82379;BME280;72008;48.140;11.614;2024-02-21T01:42:40;96388.22;;;7.03;78.18
82379;BME280;72008;48.140;11.614;2024-02-21T01:43:56;96379.72;;;6.91;73.70
82379;BME280;72008;48.140;11.614;2024-02-21T01:44:56;96381.56;;;6.96;78.77
82379;BME280;72008;48.140;11.614;2024-02-21T01:45:57;96382.88;;;6.98;80.44
82379;BME280;72008;48.140;11.614;2024-02-21T01:46:58;96377.56;;;7.07;79.05
82379;BME280;72008;48.140;11.614;2024-02-21T01:47:58;96374.72;;;7.12;80.61
82379;BME280;72008;48.140;11.614;2024-02-21T01:48:59;96377.38;;;7.17;78.91
82379;BME280;72008;48.140;11.614;2024-02-21T01:50:00;96375.31;;;6.95;73.82
82379;BME280;72008;48.140;11.614;2024-02-21T01:51:04;96365.94;;;7.01;80.97
82379;BME280;72008;48.140;11.614;2024-02-21T01:52:05;96369.41;;;7.07;79.54
82379;BME280;72008;48.140;11.614;2024-02-21T01:53:07;96368.56;;;7.06;74.51
82379;BME280;72008;48.140;11.614;2024-02-21T01:54:09;96371.72;;;7.14;81.06
82379;BME280;72008;48.140;11.614;2024-02-21T01:55:28;96359.44;;;7.16;79.79
82379;BME280;72008;48.140;11.614;2024-02-21T01:56:29;96359.31;;;7.21;81.63
82379;BME280;72008;48.140;11.614;2024-02-21T01:57:40;96355.97;;;7.11;76.08
82379;BME280;72008;48.140;11.614;2024-02-21T01:58:42;96353.66;;;7.18;80.14
82379;BME280;72008;48.140;11.614;2024-02-21T01:59:43;96353.22;;;6.97;74.69
82379;BME280;72008;48.140;11.614;2024-02-21T02:00:57;96348.16;;;6.90;77.50
82379;BME280;72008;48.140;11.614;2024-02-21T02:01:58;96342.06;;;6.79;75.55
82379;BME280;72008;48.140;11.614;2024-02-21T02:02:58;96345.72;;;6.89;75.60
82379;BME280;72008;48.140;11.614;2024-02-21T02:05:28;96343.13;;;6.83;74.38
82379;BME280;72008;48.140;11.614;2024-02-21T02:06:30;96344.50;;;6.81;79.80
82379;BME280;72008;48.140;11.614;2024-02-21T02:07:31;96344.03;;;6.93;77.65
82379;BME280;72008;48.140;11.614;2024-02-21T02:08:32;96346.97;;;6.96;79.58
82379;BME280;72008;48.140;11.614;2024-02-21T02:09:33;96341.81;;;6.95;78.43
82379;BME280;72008;48.140;11.614;2024-02-21T02:10:33;96344.00;;;6.79;76.20
82379;BME280;72008;48.140;11.614;2024-02-21T02:11:35;96342.00;;;6.84;80.14
82379;BME280;72008;48.140;11.614;2024-02-21T02:12:36;96338.56;;;6.79;75.39
82379;BME280;72008;48.140;11.614;2024-02-21T02:13:36;96337.75;;;6.78;74.13
82379;BME280;72008;48.140;11.614;2024-02-21T02:14:37;96339.47;;;6.88;78.81
82379;BME280;72008;48.140;11.614;2024-02-21T02:15:41;96341.78;;;6.81;74.74
82379;BME280;72008;48.140;11.614;2024-02-21T02:16:42;96333.56;;;6.67;75.55
82379;BME280;72008;48.140;11.614;2024-02-21T02:17:42;96329.00;;;6.81;79.53
82379;BME280;72008;48.140;11.614;2024-02-21T02:18:43;96333.53;;;6.86;79.46
82379;BME280;72008;48.140;11.614;2024-02-21T02:19:43;96327.06;;;6.82;74.45
82379;BME280;72008;48.140;11.614;2024-02-21T02:22:39;96331.75;;;6.95;79.07
82379;BME280;72008;48.140;11.614;2024-02-21T02:23:42;96329.66;;;6.73;73.48
82379;BME280;72008;48.140;11.614;2024-02-21T02:24:53;96327.78;;;6.88;78.99
82379;BME280;72008;48.140;11.614;2024-02-21T02:25:53;96321.34;;;6.97;79.44
82379;BME280;72008;48.140;11.614;2024-02-21T02:26:55;96319.34;;;7.03;80.81
82379;BME280;72008;48.140;11.614;2024-02-21T02:27:56;96319.28;;;7.08;79.91
82379;BME280;72008;48.140;11.614;2024-02-21T02:28:57;96327.38;;;6.80;72.73
82379;BME280;72008;48.140;11.614;2024-02-21T02:30:06;96315.91;;;6.83;77.19
82379;BME280;72008;48.140;11.614;2024-02-21T02:31:12;96321.09;;;6.80;75.52
82379;BME280;72008;48.140;11.614;2024-02-21T02:32:12;96317.56;;;6.98;80.43
82379;BME280;72008;48.140;11.614;2024-02-21T02:33:42;96309.88;;;7.00;77.30
82379;BME280;72008;48.140;11.614;2024-02-21T02:34:42;96314.34;;;7.10;77.74
82379;BME280;72008;48.140;11.614;2024-02-21T02:35:58;96309.16;;;6.95;74.96
82379;BME280;72008;48.140;11.614;2024-02-21T02:36:59;96303.59;;;6.86;76.43
82379;BME280;72008;48.140;11.614;2024-02-21T02:37:59;96300.59;;;6.88;75.24
82379;BME280;72008;48.140;11.614;2024-02-21T02:39:18;96301.69;;;6.87;77.71
82379;BME280;72008;48.140;11.614;2024-02-21T02:40:18;96307.09;;;6.73;75.01
82379;BME280;72008;48.140;11.614;2024-02-21T02:41:35;96298.13;;;6.72;75.43
82379;BME280;72008;48.140;11.614;2024-02-21T02:42:40;96307.94;;;6.87;80.85
82379;BME280;72008;48.140;11.614;2024-02-21T02:43:41;96305.75;;;6.89;76.41
82379;BME280;72008;48.140;11.614;2024-02-21T02:44:41;96300.28;;;6.89;79.12
82379;BME280;72008;48.140;11.614;2024-02-21T02:45:57;96295.47;;;7.00;79.64
82379;BME280;72008;48.140;11.614;2024-02-21T02:46:57;96297.28;;;7.04;77.48
82379;BME280;72008;48.140;11.614;2024-02-21T02:48:19;96300.00;;;7.04;80.81
82379;BME280;72008;48.140;11.614;2024-02-21T02:49:20;96290.66;;;7.11;78.92
82379;BME280;72008;48.140;11.614;2024-02-21T02:50:25;96291.13;;;6.99;75.03
82379;BME280;72008;48.140;11.614;2024-02-21T02:51:26;96292.84;;;7.09;81.36
82379;BME280;72008;48.140;11.614;2024-02-21T02:52:26;96295.16;;;7.15;80.45
82379;BME280;72008;48.140;11.614;2024-02-21T02:53:27;96291.44;;;7.11;75.11
82379;BME280;72008;48.140;11.614;2024-02-21T02:54:27;96289.31;;;6.94;74.84
82379;BME280;72008;48.140;11.614;2024-02-21T02:55:28;96288.56;;;6.89;77.32
82379;BME280;72008;48.140;11.614;2024-02-21T02:56:28;96283.34;;;6.78;72.72
82379;BME280;72008;48.140;11.614;2024-02-21T02:57:28;96273.94;;;6.71;76.52
82379;BME280;72008;48.140;11.614;2024-02-21T02:58:29;96276.53;;;6.62;73.25
82379;BME280;72008;48.140;11.614;2024-02-21T02:59:29;96278.97;;;6.64;75.83
82379;BME280;72008;48.140;11.614;2024-02-21T03:00:30;96280.47;;;6.70;76.71
82379;BME280;72008;48.140;11.614;2024-02-21T03:01:45;96281.63;;;6.82;76.58
82379;BME280;72008;48.140;11.614;2024-02-21T03:02:48;96279.56;;;6.74;76.26
82379;BME280;72008;48.140;11.614;2024-02-21T03:03:49;96283.84;;;6.80;75.19
82379;BME280;72008;48.140;11.614;2024-02-21T03:04:49;96273.13;;;6.70;74.65
82379;BME280;72008;48.140;11.614;2024-02-21T03:06:10;96271.81;;;6.68;75.63
82379;BME280;72008;48.140;11.614;2024-02-21T03:07:26;96271.13;;;6.76;76.26
82379;BME280;72008;48.140;11.614;2024-02-21T03:08:45;96275.25;;;6.73;75.15
82379;BME280;72008;48.140;11.614;2024-02-21T03:09:45;96279.56;;;6.74;78.01
82379;BME280;72008;48.140;11.614;2024-02-21T03:10:47;96271.88;;;6.49;75.77
82379;BME280;72008;48.140;11.614;2024-02-21T03:11:47;96276.50;;;6.48;74.54
82379;BME280;72008;48.140;11.614;2024-02-21T03:12:48;96270.81;;;6.45;75.81
82379;BME280;72008;48.140;11.614;2024-02-21T03:13:48;96277.91;;;6.46;75.02
82379;BME280;72008;48.140;11.614;2024-02-21T03:14:50;96271.78;;;6.54;74.94
82379;BME280;72008;48.140;11.614;2024-02-21T03:15:51;96271.19;;;6.57;73.87
82379;BME280;72008;48.140;11.614;2024-02-21T03:17:05;96266.75;;;6.61;75.59
82379;BME280;72008;48.140;11.614;2024-02-21T03:18:07;96264.31;;;6.59;74.07
82379;BME280;72008;48.140;11.614;2024-02-21T03:19:07;96273.81;;;6.62;75.84
82379;BME280;72008;48.140;11.614;2024-02-21T03:20:08;96265.63;;;6.48;73.79
82379;BME280;72008;48.140;11.614;2024-02-21T03:21:10;96268.16;;;6.58;76.49
82379;BME280;72008;48.140;11.614;2024-02-21T03:22:10;96267.56;;;6.61;74.85
82379;BME280;72008;48.140;11.614;2024-02-21T03:23:10;96262.56;;;6.69;77.19
82379;BME280;72008;48.140;11.614;2024-02-21T03:24:21;96269.00;;;6.73;75.81
82379;BME280;72008;48.140;11.614;2024-02-21T03:25:21;96267.47;;;6.67;75.21
82379;BME280;72008;48.140;11.614;2024-02-21T03:26:22;96268.75;;;6.55;75.56
82379;BME280;72008;48.140;11.614;2024-02-21T03:27:41;96271.19;;;6.57;77.43
82379;BME280;72008;48.140;11.614;2024-02-21T03:28:41;96273.00;;;6.61;74.14
82379;BME280;72008;48.140;11.614;2024-02-21T03:29:42;96269.75;;;6.59;74.02
82379;BME280;72008;48.140;11.614;2024-02-21T03:30:42;96268.47;;;6.57;77.85
82379;BME280;72008;48.140;11.614;2024-02-21T03:31:43;96272.19;;;6.61;75.01
82379;BME280;72008;48.140;11.614;2024-02-21T03:32:43;96265.22;;;6.55;74.32
82379;BME280;72008;48.140;11.614;2024-02-21T03:33:44;96265.88;;;6.66;78.25
82379;BME280;72008;48.140;11.614;2024-02-21T03:34:45;96264.56;;;6.63;75.16
82379;BME280;72008;48.140;11.614;2024-02-21T03:35:45;96265.75;;;6.57;74.00
82379;BME280;72008;48.140;11.614;2024-02-21T03:37:17;96267.94;;;6.55;75.39
82379;BME280;72008;48.140;11.614;2024-02-21T03:38:19;96267.56;;;6.61;77.57
82379;BME280;72008;48.140;11.614;2024-02-21T03:39:20;96272.78;;;6.58;75.20
82379;BME280;72008;48.140;11.614;2024-02-21T03:40:20;96274.78;;;6.52;73.70
82379;BME280;72008;48.140;11.614;2024-02-21T03:41:21;96273.53;;;6.64;77.60
82379;BME280;72008;48.140;11.614;2024-02-21T03:42:21;96273.13;;;6.70;75.46
82379;BME280;72008;48.140;11.614;2024-02-21T03:43:22;96271.09;;;6.62;74.14
82379;BME280;72008;48.140;11.614;2024-02-21T03:44:22;96271.28;;;6.52;73.95
82379;BME280;72008;48.140;11.614;2024-02-21T03:45:22;96268.22;;;6.40;73.41
82379;BME280;72008;48.140;11.614;2024-02-21T03:46:24;96268.69;;;6.60;78.58
82379;BME280;72008;48.140;11.614;2024-02-21T03:47:24;96270.75;;;6.50;73.75
82379;BME280;72008;48.140;11.614;2024-02-21T03:48:25;96265.34;;;6.64;78.92
82379;BME280;72008;48.140;11.614;2024-02-21T03:49:26;96265.34;;;6.64;74.35
82379;BME280;72008;48.140;11.614;2024-02-21T03:50:26;96262.63;;;6.64;76.67
82379;BME280;72008;48.140;11.614;2024-02-21T03:51:26;96266.09;;;6.36;72.62
82379;BME280;72008;48.140;11.614;2024-02-21T03:52:27;96266.34;;;6.54;74.39
82379;BME280;72008;48.140;11.614;2024-02-21T03:53:27;96266.50;;;6.44;74.31
82379;BME280;72008;48.140;11.614;2024-02-21T03:54:28;96259.91;;;6.64;78.98
82379;BME280;72008;48.140;11.614;2024-02-21T03:55:28;96263.25;;;6.60;75.25
82379;BME280;72008;48.140;11.614;2024-02-21T03:56:28;96262.84;;;6.67;77.20
82379;BME280;72008;48.140;11.614;2024-02-21T03:57:29;96254.88;;;6.57;75.28
82379;BME280;72008;48.140;11.614;2024-02-21T03:58:30;96252.31;;;6.47;73.11
82379;BME280;72008;48.140;11.614;2024-02-21T03:59:30;96258.09;;;6.59;76.86
82379;BME280;72008;48.140;11.614;2024-02-21T04:00:31;96257.47;;;6.62;73.33
82379;BME280;72008;48.140;11.614;2024-02-21T04:01:31;96260.91;;;6.54;73.40
82379;BME280;72008;48.140;11.614;2024-02-21T04:02:32;96259.59;;;6.65;77.06
82379;BME280;72008;48.140;11.614;2024-02-21T04:03:32;96255.81;;;6.66;73.78
82379;BME280;72008;48.140;11.614;2024-02-21T04:04:32;96260.03;;;6.72;75.46
82379;BME280;72008;48.140;11.614;2024-02-21T04:05:33;96257.31;;;6.72;75.51
82379;BME280;72008;48.140;11.614;2024-02-21T04:06:33;96260.03;;;6.72;74.12
82379;BME280;72008;48.140;11.614;2024-02-21T04:07:33;96257.19;;;6.64;74.77
82379;BME280;72008;48.140;11.614;2024-02-21T04:08:34;96256.69;;;6.61;77.89
82379;BME280;72008;48.140;11.614;2024-02-21T04:09:34;96257.19;;;6.64;72.90
82379;BME280;72008;48.140;11.614;2024-02-21T04:10:55;96264.25;;;6.32;72.98
82379;BME280;72008;48.140;11.614;2024-02-21T04:11:55;96248.19;;;6.49;74.63
82379;BME280;72008;48.140;11.614;2024-02-21T04:12:55;96254.41;;;6.69;80.46
82379;BME280;72008;48.140;11.614;2024-02-21T04:13:56;96251.56;;;6.60;74.31
82379;BME280;72008;48.140;11.614;2024-02-21T04:14:56;96250.84;;;6.54;73.78
82379;BME280;72008;48.140;11.614;2024-02-21T04:15:57;96245.53;;;6.44;71.95
82379;BME280;72008;48.140;11.614;2024-02-21T04:16:57;96256.81;;;6.37;75.59
82379;BME280;72008;48.140;11.614;2024-02-21T04:17:57;96257.00;;;6.60;78.19
82379;BME280;72008;48.140;11.614;2024-02-21T04:18:58;96253.06;;;6.66;76.40
82379;BME280;72008;48.140;11.614;2024-02-21T04:20:06;96254.75;;;6.62;75.83
82379;BME280;72008;48.140;11.614;2024-02-21T04:21:06;96244.78;;;6.57;79.11
82379;BME280;72008;48.140;11.614;2024-02-21T04:22:07;96251.88;;;6.72;79.80
82379;BME280;72008;48.140;11.614;2024-02-21T04:23:07;96253.19;;;6.75;77.76
82379;BME280;72008;48.140;11.614;2024-02-21T04:24:07;96237.56;;;6.67;73.70
82379;BME280;72008;48.140;11.614;2024-02-21T04:25:08;96241.19;;;6.76;78.10
82379;BME280;72008;48.140;11.614;2024-02-21T04:26:08;96243.31;;;6.79;75.95
82379;BME280;72008;48.140;11.614;2024-02-21T04:27:09;96239.03;;;6.59;74.34
82379;BME280;72008;48.140;11.614;2024-02-21T04:28:09;96237.94;;;6.60;73.17
82379;BME280;72008;48.140;11.614;2024-02-21T04:29:10;96241.00;;;6.72;75.42
82379;BME280;72008;48.140;11.614;2024-02-21T04:30:10;96244.44;;;6.78;76.20
82379;BME280;72008;48.140;11.614;2024-02-21T04:31:11;96238.13;;;6.50;72.91
82379;BME280;72008;48.140;11.614;2024-02-21T04:32:11;96234.53;;;6.68;79.17
82379;BME280;72008;48.140;11.614;2024-02-21T04:33:12;96235.91;;;6.52;74.52
82379;BME280;72008;48.140;11.614;2024-02-21T04:34:12;96237.25;;;6.35;73.99
82379;BME280;72008;48.140;11.614;2024-02-21T04:35:12;96239.25;;;6.30;72.98
82379;BME280;72008;48.140;11.614;2024-02-21T04:36:13;96233.34;;;6.42;77.37
82379;BME280;72008;48.140;11.614;2024-02-21T04:37:13;96227.75;;;6.52;77.70
82379;BME280;72008;48.140;11.614;2024-02-21T04:38:14;96230.75;;;6.36;75.35
82379;BME280;72008;48.140;11.614;2024-02-21T04:39:14;96225.78;;;6.38;76.49
82379;BME280;72008;48.140;11.614;2024-02-21T04:40:14;96227.09;;;6.27;71.84
82379;BME280;72008;48.140;11.614;2024-02-21T04:41:15;96228.03;;;6.50;78.35
82379;BME280;72008;48.140;11.614;2024-02-21T04:42:15;96226.03;;;6.56;78.12
82379;BME280;72008;48.140;11.614;2024-02-21T04:43:16;96225.56;;;6.68;78.52
82379;BME280;72008;48.140;11.614;2024-02-21T04:44:16;96223.28;;;6.75;79.77
82379;BME280;72008;48.140;11.614;2024-02-21T04:45:17;96223.34;;;6.70;73.81
82379;BME280;72008;48.140;11.614;2024-02-21T04:46:17;96221.63;;;6.74;78.48
82379;BME280;72008;48.140;11.614;2024-02-21T04:47:18;96221.84;;;6.64;75.54
82379;BME280;72008;48.140;11.614;2024-02-21T04:48:18;96224.22;;;6.51;72.13
82379;BME280;72008;48.140;11.614;2024-02-21T04:49:39;96214.56;;;6.45;77.99
82379;BME280;72008;48.140;11.614;2024-02-21T04:50:45;96214.75;;;6.49;75.51
82379;BME280;72008;48.140;11.614;2024-02-21T04:51:45;96214.16;;;6.52;75.59
82379;BME280;72008;48.140;11.614;2024-02-21T04:52:46;96210.75;;;6.60;75.78
82379;BME280;72008;48.140;11.614;2024-02-21T04:53:46;96206.78;;;6.52;73.00
82379;BME280;72008;48.140;11.614;2024-02-21T04:54:47;96206.31;;;6.64;79.39
82379;BME280;72008;48.140;11.614;2024-02-21T04:55:47;96207.72;;;6.61;75.60
82379;BME280;72008;48.140;11.614;2024-02-21T04:57:03;96206.41;;;6.59;75.86
82379;BME280;72008;48.140;11.614;2024-02-21T04:58:04;96208.88;;;6.42;72.60
82379;BME280;72008;48.140;11.614;2024-02-21T04:59:04;96201.34;;;6.52;74.77
82379;BME280;72008;48.140;11.614;2024-02-21T05:00:06;96202.28;;;6.61;78.19
82379;BME280;72008;48.140;11.614;2024-02-21T05:01:06;96187.28;;;6.64;76.72
82379;BME280;72008;48.140;11.614;2024-02-21T05:02:07;96189.19;;;6.64;77.26
82379;BME280;72008;48.140;11.614;2024-02-21T05:03:07;96188.69;;;6.61;73.87
82379;BME280;72008;48.140;11.614;2024-02-21T05:04:07;96188.59;;;6.67;75.79
82379;BME280;72008;48.140;11.614;2024-02-21T05:05:08;96187.78;;;6.66;76.41
82379;BME280;72008;48.140;11.614;2024-02-21T05:06:09;96178.91;;;6.60;73.32
82379;BME280;72008;48.140;11.614;2024-02-21T05:07:09;96183.22;;;6.48;73.83
82379;BME280;72008;48.140;11.614;2024-02-21T05:08:09;96177.38;;;6.41;75.19
82379;BME280;72008;48.140;11.614;2024-02-21T05:09:10;96179.47;;;6.44;75.78
82379;BME280;72008;48.140;11.614;2024-02-21T05:10:10;96177.88;;;6.43;72.71
82379;BME280;72008;48.140;11.614;2024-02-21T05:11:11;96182.28;;;6.25;73.76
82379;BME280;72008;48.140;11.614;2024-02-21T05:12:11;96177.56;;;6.30;77.74
82379;BME280;72008;48.140;11.614;2024-02-21T05:13:12;96181.69;;;6.42;78.54
82379;BME280;72008;48.140;11.614;2024-02-21T05:14:12;96178.22;;;6.22;72.95
82379;BME280;72008;48.140;11.614;2024-02-21T05:15:13;96174.03;;;6.44;81.06
82379;BME280;72008;48.140;11.614;2024-02-21T05:16:13;96172.34;;;6.48;74.50
82379;BME280;72008;48.140;11.614;2024-02-21T05:17:15;96168.69;;;6.38;73.78
82379;BME280;72008;48.140;11.614;2024-02-21T05:18:15;96169.81;;;6.37;73.26
82379;BME280;72008;48.140;11.614;2024-02-21T05:19:15;96162.00;;;6.17;73.06
82379;BME280;72008;48.140;11.614;2024-02-21T05:20:16;96167.28;;;6.27;77.79
82379;BME280;72008;48.140;11.614;2024-02-21T05:21:16;96163.75;;;6.41;79.30
82379;BME280;72008;48.140;11.614;2024-02-21T05:22:17;96167.00;;;6.43;77.93
82379;BME280;72008;48.140;11.614;2024-02-21T05:23:17;96159.31;;;6.31;73.22
82379;BME280;72008;48.140;11.614;2024-02-21T05:24:17;96158.00;;;6.28;76.03
82379;BME280;72008;48.140;11.614;2024-02-21T05:25:18;96156.72;;;6.40;77.02
82379;BME280;72008;48.140;11.614;2024-02-21T05:26:23;96158.97;;;6.51;78.88
82379;BME280;72008;48.140;11.614;2024-02-21T05:27:23;96153.31;;;6.48;79.62
82379;BME280;72008;48.140;11.614;2024-02-21T05:28:24;96153.31;;;6.48;78.11
82379;BME280;72008;48.140;11.614;2024-02-21T05:29:24;96157.94;;;6.47;76.41
82379;BME280;72008;48.140;11.614;2024-02-21T05:30:24;96148.78;;;6.57;80.12
82379;BME280;72008;48.140;11.614;2024-02-21T05:31:25;96152.88;;;6.41;73.57
82379;BME280;72008;48.140;11.614;2024-02-21T05:32:26;96153.63;;;6.13;74.00
82379;BME280;72008;48.140;11.614;2024-02-21T05:33:26;96148.47;;;5.98;73.77
82379;BME280;72008;48.140;11.614;2024-02-21T05:34:27;96153.84;;;6.17;78.93
82379;BME280;72008;48.140;11.614;2024-02-21T05:35:28;96153.72;;;6.08;73.54
82379;BME280;72008;48.140;11.614;2024-02-21T05:36:28;96150.28;;;6.03;74.64
82379;BME280;72008;48.140;11.614;2024-02-21T05:37:29;96152.31;;;6.11;74.22